createdAt,value
2023-05-05T00:01:01.142Z,100783.84
2023-05-05T00:04:04.135Z,100778.19
2023-05-05T00:07:06.912Z,100782.75
2023-05-05T00:10:10.257Z,100779.81
2023-05-05T00:13:13.764Z,100777.88
2023-05-05T00:16:16.672Z,100780.63
2023-05-05T00:19:19.331Z,100778.84
2023-05-05T00:22:22.415Z,100781.03
2023-05-05T00:25:25.246Z,100781.56
2023-05-05T00:28:28.038Z,100791.50
2023-05-05T00:31:31.101Z,100788.16
2023-05-05T00:34:33.755Z,100783.19
2023-05-05T00:37:36.430Z,100775.87
2023-05-05T00:40:39.336Z,100772.69
2023-05-05T00:43:42.322Z,100779.44
2023-05-05T00:46:44.984Z,100775.00
2023-05-05T00:49:47.872Z,100775.84
2023-05-05T00:52:55.493Z,100772.75
2023-05-05T00:55:58.324Z,100779.22
2023-05-05T00:59:02.794Z,100772.34
2023-05-05T01:02:05.712Z,100770.25
2023-05-05T01:05:13.633Z,100772.16
2023-05-05T01:08:28.353Z,100764.88
2023-05-05T01:11:46.888Z,100766.81
2023-05-05T01:15:35.382Z,100769.13
2023-05-05T01:18:46.500Z,100773.94
2023-05-05T01:22:00.825Z,100767.44
2023-05-05T01:25:26.156Z,100765.78
2023-05-05T01:28:45.117Z,100761.38
2023-05-05T01:32:22.868Z,100768.97
2023-05-05T01:35:38.101Z,100768.44
2023-05-05T01:38:43.086Z,100769.13
2023-05-05T01:41:48.795Z,100771.47
2023-05-05T01:44:52.844Z,100765.53
2023-05-05T01:47:56.719Z,100766.91
2023-05-05T01:51:01.376Z,100771.56
2023-05-05T01:54:08.310Z,100767.28
2023-05-05T01:57:11.984Z,100768.69
2023-05-05T02:00:16.939Z,100765.34
2023-05-05T02:03:21.125Z,100769.44
2023-05-05T02:06:24.841Z,100766.28
2023-05-05T02:09:29.468Z,100768.66
2023-05-05T02:12:33.228Z,100762.03
2023-05-05T02:15:37.996Z,100768.16
2023-05-05T02:18:41.599Z,100770.19
2023-05-05T02:21:44.332Z,100771.16
2023-05-05T02:24:47.304Z,100763.81
2023-05-05T02:27:52.411Z,100775.50
2023-05-05T02:30:58.160Z,100782.78
2023-05-05T02:34:02.104Z,100781.56
2023-05-05T02:37:07.887Z,100792.16
2023-05-05T02:40:11.270Z,100781.06
2023-05-05T02:43:17.207Z,100779.66
2023-05-05T02:46:20.064Z,100780.69
2023-05-05T02:49:23.211Z,100772.56
2023-05-05T02:52:26.301Z,100769.66
2023-05-05T02:55:39.770Z,100766.03
2023-05-05T02:59:01.018Z,100774.12
2023-05-05T03:02:25.375Z,100760.34
2023-05-05T03:05:35.695Z,100763.91
2023-05-05T03:08:53.047Z,100764.09
2023-05-05T03:12:02.229Z,100770.00
2023-05-05T03:15:06.426Z,100772.75
2023-05-05T03:18:10.884Z,100765.28
2023-05-05T03:21:13.688Z,100769.56
2023-05-05T03:24:18.281Z,100759.94
2023-05-05T03:27:21.213Z,100766.75
2023-05-05T03:30:23.939Z,100759.28
2023-05-05T03:33:26.811Z,100762.47
2023-05-05T03:36:30.000Z,100769.88
2023-05-05T03:39:32.606Z,100761.19
2023-05-05T03:42:35.275Z,100759.28
2023-05-05T03:45:38.378Z,100752.41
2023-05-05T03:48:41.984Z,100758.34
2023-05-05T03:51:44.875Z,100757.88
2023-05-05T03:54:47.586Z,100754.31
2023-05-05T03:57:50.287Z,100759.28
2023-05-05T04:00:53.097Z,100763.56
2023-05-05T04:03:56.624Z,100763.44
2023-05-05T04:06:59.527Z,100759.75
2023-05-05T04:10:02.480Z,100755.41
2023-05-05T04:13:05.525Z,100749.78
2023-05-05T04:16:09.155Z,100757.25
2023-05-05T04:19:13.319Z,100759.84
2023-05-05T04:22:16.089Z,100760.72
2023-05-05T04:25:18.939Z,100757.91
2023-05-05T04:28:22.182Z,100763.19
2023-05-05T04:31:25.041Z,100759.06
2023-05-05T04:34:27.890Z,100762.87
2023-05-05T04:37:30.544Z,100772.03
2023-05-05T04:40:33.384Z,100769.88
2023-05-05T04:43:39.081Z,100778.50
2023-05-05T04:46:42.165Z,100785.47
2023-05-05T04:49:45.286Z,100775.44
2023-05-05T04:52:48.753Z,100779.44
2023-05-05T04:55:53.691Z,100782.47
2023-05-05T04:58:57.189Z,100784.22
2023-05-05T05:02:03.170Z,100788.19
2023-05-05T05:05:06.439Z,100781.44
2023-05-05T05:08:09.111Z,100790.50
2023-05-05T05:11:12.343Z,100795.84
2023-05-05T05:14:15.030Z,100801.44
2023-05-05T05:17:17.757Z,100807.47
2023-05-05T05:20:20.583Z,100802.97
2023-05-05T05:23:23.502Z,100807.53
2023-05-05T05:26:26.290Z,100806.72
2023-05-05T05:29:29.088Z,100808.81
2023-05-05T05:32:31.811Z,100811.88
2023-05-05T05:35:37.599Z,100825.06
2023-05-05T05:38:40.288Z,100827.25
2023-05-05T05:41:43.112Z,100813.69
2023-05-05T05:44:48.710Z,100825.91
2023-05-05T05:47:51.506Z,100829.34
2023-05-05T05:50:54.877Z,100828.00
2023-05-05T05:53:58.887Z,100825.81
2023-05-05T05:57:02.723Z,100819.81
2023-05-05T06:00:06.700Z,100822.72
2023-05-05T06:03:09.924Z,100818.22
2023-05-05T06:06:12.929Z,100825.47
2023-05-05T06:09:15.784Z,100821.59
2023-05-05T06:12:18.552Z,100825.00
2023-05-05T06:15:21.800Z,100826.75
2023-05-05T06:18:27.601Z,100819.78
2023-05-05T06:21:33.350Z,100826.28
2023-05-05T06:24:39.090Z,100836.78
2023-05-05T06:27:41.762Z,100830.44
2023-05-05T06:30:44.389Z,100830.63
2023-05-05T06:33:46.993Z,100824.53
2023-05-05T06:36:49.879Z,100821.03
2023-05-05T06:39:52.572Z,100819.78
2023-05-05T06:42:55.296Z,100827.19
2023-05-05T06:45:59.189Z,100834.63
2023-05-05T06:49:02.172Z,100832.44
2023-05-05T06:52:05.260Z,100833.13
2023-05-05T06:55:10.876Z,100834.16
2023-05-05T06:58:13.606Z,100834.13
2023-05-05T07:01:16.540Z,100831.62
2023-05-05T07:04:19.429Z,100826.63
2023-05-05T07:07:22.607Z,100829.31
2023-05-05T07:10:26.096Z,100827.75
2023-05-05T07:13:31.975Z,100824.84
2023-05-05T07:16:35.358Z,100828.62
2023-05-05T07:19:41.110Z,100824.59
2023-05-05T07:22:44.222Z,100804.75
2023-05-05T07:25:47.099Z,100815.84
2023-05-05T07:28:52.225Z,100818.59
2023-05-05T07:31:55.048Z,100815.12
2023-05-05T07:34:57.876Z,100827.44
2023-05-05T07:38:00.721Z,100821.06
2023-05-05T07:41:03.591Z,100822.69
2023-05-05T07:44:09.334Z,100816.31
2023-05-05T07:47:12.341Z,100814.44
2023-05-05T07:50:15.502Z,100819.09
2023-05-05T07:53:21.198Z,100810.34
2023-05-05T07:56:23.858Z,100800.59
2023-05-05T07:59:29.987Z,100812.84
2023-05-05T08:02:32.687Z,100810.47
2023-05-05T08:05:35.887Z,100812.66
2023-05-05T08:08:38.956Z,100809.94
2023-05-05T08:11:41.987Z,100806.25
2023-05-05T08:14:44.650Z,100810.19
2023-05-05T08:17:49.032Z,100810.84
2023-05-05T08:20:53.076Z,100816.97
2023-05-05T08:23:55.983Z,100815.50
2023-05-05T08:26:59.571Z,100807.09
2023-05-05T08:30:03.373Z,100783.03
2023-05-05T08:33:06.280Z,100807.28
2023-05-05T08:36:09.216Z,100794.38
2023-05-05T08:39:11.938Z,100807.63
2023-05-05T08:42:25.458Z,100797.66
2023-05-05T08:45:41.004Z,100799.97
2023-05-05T08:48:45.035Z,100783.72
2023-05-05T08:51:52.549Z,100798.22
2023-05-05T08:54:58.002Z,100808.94
2023-05-05T08:58:04.510Z,100801.84
2023-05-05T09:01:10.740Z,100804.66
2023-05-05T09:04:13.727Z,100801.62
2023-05-05T09:07:19.611Z,100806.28
2023-05-05T09:10:22.460Z,100801.97
2023-05-05T09:13:26.367Z,100795.69
2023-05-05T09:16:32.122Z,100797.75
2023-05-05T09:19:56.510Z,100781.69
2023-05-05T09:23:27.403Z,100793.16
2023-05-05T09:26:33.537Z,100786.97
2023-05-05T09:29:39.441Z,100784.09
2023-05-05T09:32:50.487Z,100788.31
2023-05-05T09:35:55.196Z,100786.41
2023-05-05T09:39:05.021Z,100777.44
2023-05-05T09:42:20.392Z,100774.62
2023-05-05T09:45:23.163Z,100774.56
2023-05-05T09:48:29.676Z,100766.13
2023-05-05T09:51:32.448Z,100769.97
2023-05-05T09:54:35.200Z,100773.28
2023-05-05T09:57:37.828Z,100764.47
2023-05-05T10:00:40.709Z,100771.12
2023-05-05T10:04:01.972Z,100759.25
2023-05-05T10:07:04.811Z,100759.47
2023-05-05T10:10:10.393Z,100769.69
2023-05-05T10:13:13.334Z,100761.69
2023-05-05T10:16:18.670Z,100762.87
2023-05-05T10:19:23.967Z,100766.53
2023-05-05T10:22:30.549Z,100757.91
2023-05-05T10:25:40.025Z,100766.25
2023-05-05T10:28:51.218Z,100757.91
2023-05-05T10:31:54.567Z,100761.16
2023-05-05T10:35:03.485Z,100755.94
2023-05-05T10:38:09.078Z,100744.41
2023-05-05T10:41:11.950Z,100747.16
2023-05-05T10:44:15.249Z,100734.31
2023-05-05T10:47:19.584Z,100733.69
2023-05-05T10:50:35.017Z,100729.34
2023-05-05T10:53:45.404Z,100720.84
2023-05-05T10:56:48.575Z,100726.81
2023-05-05T10:59:51.533Z,100715.13
2023-05-05T11:03:16.893Z,100710.09
2023-05-05T11:06:19.637Z,100705.28
2023-05-05T11:09:28.976Z,100708.00
2023-05-05T11:12:32.947Z,100706.81
2023-05-05T11:15:38.041Z,100704.81
2023-05-05T11:18:44.599Z,100700.06
2023-05-05T11:22:01.394Z,100702.91
2023-05-05T11:25:41.002Z,100699.91
2023-05-05T11:28:59.155Z,100688.81
2023-05-05T11:32:15.885Z,100688.66
2023-05-05T11:35:18.904Z,100679.81
2023-05-05T11:38:31.718Z,100689.53
2023-05-05T11:41:58.527Z,100673.31
2023-05-05T11:45:01.365Z,100665.56
2023-05-05T11:48:29.499Z,100665.44
2023-05-05T11:51:32.380Z,100670.69
2023-05-05T11:54:37.071Z,100664.25
2023-05-05T11:57:39.778Z,100660.28
2023-05-05T12:00:42.636Z,100660.72
2023-05-05T12:03:46.092Z,100655.03
2023-05-05T12:06:51.591Z,100657.81
2023-05-05T12:09:55.304Z,100654.25
2023-05-05T12:12:58.365Z,100651.41
2023-05-05T12:16:14.849Z,100661.31
2023-05-05T12:19:17.768Z,100649.47
2023-05-05T12:22:25.911Z,100649.47
2023-05-05T12:25:36.271Z,100640.28
2023-05-05T12:28:48.850Z,100640.81
2023-05-05T12:31:51.754Z,100632.00
2023-05-05T12:34:56.475Z,100630.69
2023-05-05T12:37:59.480Z,100633.63
2023-05-05T12:41:02.863Z,100630.00
2023-05-05T12:44:05.927Z,100635.88
2023-05-05T12:47:11.832Z,100629.75
2023-05-05T12:50:14.555Z,100627.00
2023-05-05T12:53:24.077Z,100627.37
2023-05-05T12:56:52.969Z,100616.22
2023-05-05T12:59:55.781Z,100610.97
2023-05-05T13:02:58.633Z,100610.47
2023-05-05T13:06:01.663Z,100602.34
2023-05-05T13:09:05.894Z,100605.38
2023-05-05T13:12:14.483Z,100607.25
2023-05-05T13:15:17.513Z,100594.03
2023-05-05T13:18:20.248Z,100594.16
2023-05-05T13:21:22.952Z,100581.28
2023-05-05T13:24:38.570Z,100586.34
2023-05-05T13:27:49.282Z,100584.25
2023-05-05T13:30:51.989Z,100567.97
2023-05-05T13:33:54.821Z,100573.16
2023-05-05T13:36:57.516Z,100567.47
2023-05-05T13:40:03.778Z,100562.69
2023-05-05T13:43:06.522Z,100566.63
2023-05-05T13:46:19.724Z,100549.88
2023-05-05T13:49:26.149Z,100552.00
2023-05-05T13:52:29.884Z,100546.69
2023-05-05T13:55:34.290Z,100539.69
2023-05-05T13:58:38.081Z,100537.47
2023-05-05T14:01:40.988Z,100532.03
2023-05-05T14:04:44.146Z,100528.94
2023-05-05T14:07:47.641Z,100523.94
2023-05-05T14:10:53.393Z,100524.06
2023-05-05T14:13:56.033Z,100521.16
2023-05-05T14:17:01.703Z,100521.53
2023-05-05T14:20:06.018Z,100520.66
2023-05-05T14:23:12.070Z,100517.81
2023-05-05T14:26:14.814Z,100514.50
2023-05-05T14:29:19.538Z,100516.06
2023-05-05T14:32:23.474Z,100518.44
2023-05-05T14:35:32.171Z,100517.81
2023-05-05T14:38:35.442Z,100509.50
2023-05-05T14:41:41.133Z,100515.22
2023-05-05T14:44:43.951Z,100504.72
2023-05-05T14:47:46.663Z,100511.69
2023-05-05T14:50:50.147Z,100505.78
2023-05-05T14:53:53.109Z,100506.38
2023-05-05T14:56:56.302Z,100502.00
2023-05-05T14:59:59.128Z,100495.22
2023-05-05T15:03:02.098Z,100488.09
2023-05-05T15:06:05.701Z,100488.28
2023-05-05T15:09:09.349Z,100495.72
2023-05-05T15:12:15.694Z,100490.19
2023-05-05T15:15:19.481Z,100493.78
2023-05-05T15:18:22.177Z,100496.38
2023-05-05T15:21:25.077Z,100488.31
2023-05-05T15:24:31.425Z,100489.31
2023-05-05T15:27:36.268Z,100489.19
2023-05-05T15:30:42.040Z,100493.31
2023-05-05T15:33:49.663Z,100486.91
2023-05-05T15:36:52.416Z,100486.34
2023-05-05T15:39:58.618Z,100483.25
2023-05-05T15:43:01.394Z,100485.09
2023-05-05T15:46:04.132Z,100483.69
2023-05-05T15:49:09.964Z,100480.87
2023-05-05T15:52:12.990Z,100483.50
2023-05-05T15:55:15.704Z,100490.69
2023-05-05T15:58:19.612Z,100480.34
2023-05-05T16:01:23.754Z,100480.03
2023-05-05T16:04:29.887Z,100473.44
2023-05-05T16:07:35.941Z,100469.50
2023-05-05T16:10:38.873Z,100466.12
2023-05-05T16:13:42.696Z,100454.41
2023-05-05T16:16:45.494Z,100454.41
2023-05-05T16:19:48.809Z,100452.78
2023-05-05T16:22:51.593Z,100450.56
2023-05-05T16:25:54.297Z,100449.12
2023-05-05T16:28:57.476Z,100450.31
2023-05-05T16:32:03.309Z,100446.59
2023-05-05T16:35:07.795Z,100445.00
2023-05-05T16:38:13.967Z,100448.72
2023-05-05T16:41:19.940Z,100449.03
2023-05-05T16:44:25.821Z,100446.19
2023-05-05T16:47:29.474Z,100456.25
2023-05-05T16:50:32.265Z,100449.16
2023-05-05T16:53:34.917Z,100445.66
2023-05-05T16:56:37.747Z,100450.41
2023-05-05T16:59:41.882Z,100450.28
2023-05-05T17:02:44.719Z,100450.66
2023-05-05T17:05:49.990Z,100438.91
2023-05-05T17:08:53.137Z,100446.59
2023-05-05T17:11:56.297Z,100441.81
2023-05-05T17:14:59.861Z,100449.47
2023-05-05T17:18:02.736Z,100450.81
2023-05-05T17:21:05.740Z,100450.81
2023-05-05T17:24:11.570Z,100454.59
2023-05-05T17:27:14.295Z,100454.59
2023-05-05T17:30:17.837Z,100456.47
2023-05-05T17:33:22.224Z,100463.44
2023-05-05T17:36:25.098Z,100459.69
2023-05-05T17:39:27.923Z,100456.34
2023-05-05T17:42:33.805Z,100456.53
2023-05-05T17:45:36.503Z,100453.38
2023-05-05T17:48:39.365Z,100460.41
2023-05-05T17:51:42.176Z,100461.81
2023-05-05T17:54:46.032Z,100466.97
2023-05-05T17:57:48.660Z,100470.25
2023-05-05T18:00:51.529Z,100466.28
2023-05-05T18:03:54.250Z,100460.75
2023-05-05T18:06:57.552Z,100465.44
2023-05-05T18:10:00.406Z,100470.50
2023-05-05T18:13:03.231Z,100466.50
2023-05-05T18:16:06.474Z,100469.47
2023-05-05T18:19:09.390Z,100465.97
2023-05-05T18:22:14.158Z,100467.31
2023-05-05T18:25:17.473Z,100476.66
2023-05-05T18:28:20.636Z,100478.19
2023-05-05T18:31:23.422Z,100480.47
2023-05-05T18:34:26.420Z,100483.59
2023-05-05T18:37:29.331Z,100485.25
2023-05-05T18:40:32.080Z,100491.84
2023-05-05T18:43:34.919Z,100492.69
2023-05-05T18:46:37.731Z,100486.47
2023-05-05T18:49:45.578Z,100491.37
2023-05-05T18:52:48.293Z,100493.22
2023-05-05T18:55:50.984Z,100494.19
2023-05-05T18:58:53.866Z,100498.66
2023-05-05T19:01:56.827Z,100493.72
2023-05-05T19:04:59.743Z,100496.28
2023-05-05T19:08:05.770Z,100504.00
2023-05-05T19:11:08.514Z,100500.84
2023-05-05T19:14:14.340Z,100498.94
2023-05-05T19:17:17.469Z,100497.72
2023-05-05T19:20:20.661Z,100496.25
2023-05-05T19:23:23.483Z,100490.19
2023-05-05T19:26:26.496Z,100491.97
2023-05-05T19:29:32.208Z,100491.72
2023-05-05T19:32:35.016Z,100498.19
2023-05-05T19:35:37.899Z,100489.53
2023-05-05T19:38:44.572Z,100492.28
2023-05-05T19:41:47.496Z,100486.72
2023-05-05T19:44:50.248Z,100491.09
2023-05-05T19:47:53.336Z,100494.41
2023-05-05T19:50:56.289Z,100490.12
2023-05-05T19:53:59.649Z,100493.25
2023-05-05T19:57:05.486Z,100484.59
2023-05-05T20:00:10.581Z,100489.25
2023-05-05T20:03:13.840Z,100489.84
2023-05-05T20:06:16.579Z,100481.19
2023-05-05T20:09:19.360Z,100482.94
2023-05-05T20:12:23.376Z,100477.72
2023-05-05T20:15:26.482Z,100465.69
2023-05-05T20:18:29.324Z,100473.53
2023-05-05T20:21:32.635Z,100477.66
2023-05-05T20:24:35.967Z,100473.38
2023-05-05T20:27:41.674Z,100474.13
2023-05-05T20:30:44.437Z,100469.56
2023-05-05T20:33:47.570Z,100466.16
2023-05-05T20:36:50.368Z,100467.63
2023-05-05T20:39:54.518Z,100464.72
2023-05-05T20:42:57.622Z,100465.44
2023-05-05T20:46:00.425Z,100458.88
2023-05-05T20:49:03.818Z,100461.44
2023-05-05T20:52:06.839Z,100454.59
2023-05-05T20:55:09.600Z,100451.63
2023-05-05T20:58:12.350Z,100452.78
2023-05-05T21:01:15.012Z,100452.22
2023-05-05T21:04:17.869Z,100441.38
2023-05-05T21:07:21.491Z,100444.28
2023-05-05T21:10:24.320Z,100448.06
2023-05-05T21:13:27.010Z,100449.72
2023-05-05T21:16:29.646Z,100453.56
2023-05-05T21:19:32.310Z,100447.53
2023-05-05T21:22:34.908Z,100440.13
2023-05-05T21:25:37.734Z,100445.31
2023-05-05T21:28:43.592Z,100440.72
2023-05-05T21:31:46.771Z,100442.44
2023-05-05T21:34:49.596Z,100449.72
2023-05-05T21:37:52.333Z,100450.97
2023-05-05T21:40:58.669Z,100453.41
2023-05-05T21:44:04.379Z,100451.47
2023-05-05T21:47:10.211Z,100447.72
2023-05-05T21:50:13.101Z,100451.06
2023-05-05T21:53:15.776Z,100444.34
2023-05-05T21:56:18.498Z,100442.34
2023-05-05T21:59:21.295Z,100435.62
2023-05-05T22:02:24.245Z,100437.13
2023-05-05T22:05:30.111Z,100441.28
2023-05-05T22:08:36.001Z,100444.72
2023-05-05T22:11:39.135Z,100449.88
2023-05-05T22:14:41.915Z,100440.00
2023-05-05T22:17:47.769Z,100437.88
2023-05-05T22:20:51.485Z,100440.19
2023-05-05T22:23:54.306Z,100440.37
2023-05-05T22:26:57.564Z,100443.31
2023-05-05T22:30:00.298Z,100445.16
2023-05-05T22:33:03.844Z,100443.66
2023-05-05T22:36:07.014Z,100446.66
2023-05-05T22:39:09.806Z,100441.72
2023-05-05T22:42:12.512Z,100446.16
2023-05-05T22:45:15.316Z,100434.47
2023-05-05T22:48:18.121Z,100441.91
2023-05-05T22:51:20.721Z,100447.34
2023-05-05T22:54:23.575Z,100446.84
2023-05-05T22:57:26.517Z,100451.94
2023-05-05T23:00:29.520Z,100446.34
2023-05-05T23:03:32.270Z,100439.44
2023-05-05T23:06:39.862Z,100443.72
2023-05-05T23:09:43.041Z,100422.94
2023-05-05T23:12:46.176Z,100443.56
2023-05-05T23:15:48.950Z,100446.84
2023-05-05T23:18:51.683Z,100455.09
2023-05-05T23:21:57.371Z,100455.09
2023-05-05T23:25:00.094Z,100450.94
2023-05-05T23:28:03.735Z,100444.03
2023-05-05T23:31:06.582Z,100441.72
2023-05-05T23:34:09.468Z,100438.28
2023-05-05T23:37:13.979Z,100449.12
2023-05-05T23:40:16.890Z,100443.22
2023-05-05T23:43:19.649Z,100442.56
2023-05-05T23:46:22.494Z,100439.44
2023-05-05T23:49:28.257Z,100439.59
2023-05-05T23:52:31.086Z,100439.75
2023-05-05T23:55:34.099Z,100435.66
2023-05-05T23:58:36.818Z,100430.22
